createdAt,value
2022-12-22T00:02:46.080Z,6.47
2022-12-22T00:05:34.834Z,7.20
2022-12-22T00:08:21.157Z,5.70
2022-12-22T00:11:07.459Z,7.65
2022-12-22T00:13:53.610Z,5.25
2022-12-22T00:16:39.453Z,3.70
2022-12-22T00:19:32.576Z,4.53
2022-12-22T00:22:32.476Z,4.65
2022-12-22T00:25:18.334Z,4.38
2022-12-22T00:28:03.987Z,2.70
2022-12-22T00:30:49.725Z,2.88
2022-12-22T00:33:38.597Z,4.60
2022-12-22T00:36:27.003Z,2.80
2022-12-22T00:41:58.399Z,5.13
2022-12-22T00:44:44.052Z,4.28
2022-12-22T00:47:36.830Z,3.70
2022-12-22T00:50:22.796Z,3.20
2022-12-22T00:53:08.388Z,3.80
2022-12-22T00:55:54.099Z,2.92
2022-12-22T00:58:39.912Z,3.50
2022-12-22T01:01:26.071Z,2.80
2022-12-22T01:04:11.737Z,3.33
2022-12-22T01:06:57.906Z,3.92
2022-12-22T01:09:43.804Z,3.20
2022-12-22T01:12:37.391Z,2.30
2022-12-22T01:15:35.596Z,4.00
2022-12-22T01:18:21.827Z,3.08
2022-12-22T01:21:08.210Z,3.90
2022-12-22T01:23:54.281Z,3.05
2022-12-22T01:26:40.335Z,3.95
2022-12-22T01:29:26.536Z,2.45
2022-12-22T01:32:12.184Z,6.78
2022-12-22T01:34:58.195Z,2.65
2022-12-22T01:37:43.832Z,3.35
2022-12-22T01:40:38.647Z,3.25
2022-12-22T01:43:51.910Z,3.17
2022-12-22T01:46:46.298Z,2.97
2022-12-22T01:49:53.910Z,5.45
2022-12-22T01:52:44.099Z,3.05
2022-12-22T01:55:34.126Z,3.83
2022-12-22T01:58:19.748Z,2.80
2022-12-22T02:01:06.133Z,3.38
2022-12-22T02:03:52.442Z,4.50
2022-12-22T02:06:59.939Z,5.25
2022-12-22T02:09:53.165Z,2.83
2022-12-22T02:12:54.371Z,3.40
2022-12-22T02:16:14.965Z,4.53
2022-12-22T02:19:32.941Z,3.35
2022-12-22T02:22:45.216Z,5.32
2022-12-22T02:25:49.705Z,4.30
2022-12-22T02:28:35.377Z,6.38
2022-12-22T02:31:21.048Z,4.80
2022-12-22T02:34:06.607Z,4.95
2022-12-22T02:36:58.166Z,3.15
2022-12-22T02:40:06.861Z,4.30
2022-12-22T02:43:31.781Z,4.30
2022-12-22T02:46:42.078Z,3.45
2022-12-22T02:49:28.352Z,8.95
2022-12-22T02:52:21.589Z,5.18
2022-12-22T02:55:07.324Z,5.13
2022-12-22T02:57:53.453Z,3.22
2022-12-22T03:00:38.857Z,5.03
2022-12-22T03:03:25.448Z,5.57
2022-12-22T03:06:11.217Z,6.80
2022-12-22T03:08:56.816Z,5.35
2022-12-22T03:11:42.463Z,4.70
2022-12-22T03:14:28.189Z,10.93
2022-12-22T03:17:14.485Z,10.00
2022-12-22T03:20:00.234Z,5.45
2022-12-22T03:22:45.772Z,6.40
2022-12-22T03:25:31.574Z,7.10
2022-12-22T03:28:03.673Z,8.88
2022-12-22T03:30:30.833Z,7.72
2022-12-22T03:32:58.327Z,6.28
2022-12-22T03:35:25.906Z,7.50
2022-12-22T03:37:53.167Z,7.53
2022-12-22T03:40:20.324Z,9.57
2022-12-22T03:43:05.889Z,7.30
2022-12-22T03:45:51.687Z,5.32
2022-12-22T03:48:18.966Z,7.68
2022-12-22T03:50:46.184Z,6.25
2022-12-22T03:53:13.572Z,8.30
2022-12-22T03:55:40.682Z,9.88
2022-12-22T04:00:34.914Z,7.32
2022-12-22T04:03:02.160Z,11.85
2022-12-22T04:05:29.376Z,7.25
2022-12-22T04:10:41.991Z,9.57
2022-12-22T04:13:09.176Z,9.43
2022-12-22T04:18:03.497Z,12.13
2022-12-22T04:20:30.881Z,13.63
2022-12-22T04:22:58.607Z,10.80
2022-12-22T04:25:27.247Z,14.75
2022-12-22T04:27:54.394Z,15.65
2022-12-22T04:30:21.663Z,11.77
2022-12-22T04:35:15.889Z,15.05
2022-12-22T04:37:43.019Z,13.93
2022-12-22T04:42:37.268Z,10.88
2022-12-22T04:45:04.900Z,30.67
2022-12-22T04:47:32.205Z,15.23
2022-12-22T04:49:59.937Z,20.35
2022-12-22T04:52:27.230Z,15.68
2022-12-22T04:57:21.644Z,18.63
2022-12-22T04:59:48.949Z,14.90
2022-12-22T05:02:16.124Z,24.10
2022-12-22T05:04:43.486Z,12.05
2022-12-22T05:07:10.642Z,14.68
2022-12-22T05:12:27.978Z,13.60
2022-12-22T05:14:55.082Z,12.55
2022-12-22T05:19:49.271Z,14.70
2022-12-22T05:24:43.481Z,22.20
2022-12-22T05:27:13.419Z,13.52
2022-12-22T05:29:40.640Z,21.00
2022-12-22T05:34:34.635Z,16.67
2022-12-22T05:39:28.708Z,12.55
2022-12-22T05:41:55.949Z,23.75
2022-12-22T05:46:53.365Z,15.18
2022-12-22T05:49:20.818Z,25.42
2022-12-22T05:51:48.295Z,15.45
2022-12-22T05:54:15.461Z,19.73
2022-12-22T05:59:10.935Z,17.40
2022-12-22T06:01:38.577Z,30.83
2022-12-22T06:04:05.918Z,15.15
2022-12-22T06:06:33.104Z,21.23
2022-12-22T06:11:27.159Z,17.45
2022-12-22T06:16:21.531Z,22.83
2022-12-22T06:18:48.675Z,15.57
2022-12-22T06:23:42.923Z,19.80
2022-12-22T06:26:10.148Z,17.63
2022-12-22T06:28:37.371Z,31.58
2022-12-22T06:33:31.541Z,19.35
2022-12-22T06:38:28.471Z,19.48
2022-12-22T06:40:55.825Z,19.27
2022-12-22T06:43:22.932Z,21.95
2022-12-22T06:48:17.236Z,24.85
2022-12-22T06:50:44.441Z,20.02
2022-12-22T06:53:11.866Z,29.42
2022-12-22T06:55:39.093Z,29.42
2022-12-22T07:00:34.432Z,16.13
2022-12-22T07:03:01.756Z,19.40
2022-12-22T07:05:32.132Z,15.68
2022-12-22T07:08:05.799Z,30.33
2022-12-22T07:10:53.607Z,13.57
2022-12-22T07:13:20.917Z,18.60
2022-12-22T07:15:53.794Z,20.40
2022-12-22T07:18:24.828Z,17.20
2022-12-22T07:20:52.247Z,19.52
2022-12-22T07:23:19.365Z,18.65
2022-12-22T07:28:18.343Z,17.75
2022-12-22T07:30:47.709Z,20.20
2022-12-22T07:33:14.855Z,21.40
2022-12-22T07:38:09.087Z,15.52
2022-12-22T07:40:41.578Z,16.58
2022-12-22T07:43:09.454Z,15.85
2022-12-22T07:48:28.613Z,27.63
2022-12-22T07:51:01.180Z,30.73
2022-12-22T07:53:28.384Z,15.75
2022-12-22T07:58:22.610Z,26.83
2022-12-22T08:03:16.908Z,28.70
2022-12-22T08:05:45.724Z,20.38
2022-12-22T08:08:12.849Z,35.20
2022-12-22T08:13:09.981Z,18.20
2022-12-22T08:15:38.261Z,21.17
2022-12-22T08:18:05.483Z,16.65
2022-12-22T08:20:33.279Z,40.33
2022-12-22T08:23:00.294Z,20.70
2022-12-22T08:27:57.015Z,15.68
2022-12-22T08:30:24.479Z,17.85
2022-12-22T08:32:52.127Z,28.27
2022-12-22T08:35:20.007Z,28.67
2022-12-22T08:37:48.853Z,32.10
2022-12-22T08:40:28.563Z,27.30
2022-12-22T08:43:01.014Z,18.25
2022-12-22T08:45:28.161Z,36.85
2022-12-22T08:50:23.514Z,20.55
2022-12-22T08:52:50.744Z,53.38
2022-12-22T08:57:54.011Z,15.00
2022-12-22T09:00:23.758Z,22.33
2022-12-22T09:02:51.254Z,26.02
2022-12-22T09:05:19.277Z,39.25
2022-12-22T09:07:49.275Z,26.15
2022-12-22T09:10:16.670Z,19.15
2022-12-22T09:12:44.014Z,22.73
2022-12-22T09:15:11.493Z,16.90
2022-12-22T09:17:38.612Z,19.15
2022-12-22T09:22:33.140Z,26.65
2022-12-22T09:25:00.440Z,17.70
2022-12-22T09:27:27.728Z,43.65
2022-12-22T09:29:55.075Z,43.13
2022-12-22T09:34:49.804Z,31.08
2022-12-22T09:37:17.651Z,19.05
2022-12-22T09:39:46.423Z,47.90
2022-12-22T09:42:16.057Z,23.00
2022-12-22T09:44:47.305Z,47.60
2022-12-22T09:47:26.210Z,43.28
2022-12-22T09:49:56.396Z,34.08
2022-12-22T09:52:35.926Z,28.08
2022-12-22T09:55:13.045Z,35.55
2022-12-22T09:57:40.419Z,34.55
2022-12-22T10:00:15.432Z,27.27
2022-12-22T10:03:09.092Z,37.95
2022-12-22T10:06:19.914Z,49.25
2022-12-22T10:08:47.419Z,39.60
2022-12-22T10:11:18.968Z,41.60
2022-12-22T10:13:46.688Z,46.50
2022-12-22T10:16:19.643Z,46.55
2022-12-22T10:19:06.428Z,33.65
2022-12-22T10:21:42.719Z,44.22
2022-12-22T10:24:19.656Z,46.95
2022-12-22T10:26:47.002Z,27.40
2022-12-22T10:29:17.129Z,30.10
2022-12-22T10:32:01.347Z,46.67
2022-12-22T10:34:29.750Z,21.15
2022-12-22T10:37:03.391Z,44.95
2022-12-22T10:39:35.040Z,24.73
2022-12-22T10:42:13.943Z,38.25
2022-12-22T10:44:46.013Z,46.58
2022-12-22T10:47:19.764Z,29.33
2022-12-22T10:49:50.225Z,38.25
2022-12-22T10:52:21.239Z,51.63
2022-12-22T10:54:51.155Z,50.38
2022-12-22T10:57:18.194Z,60.42
2022-12-22T11:02:21.608Z,44.47
2022-12-22T11:04:49.737Z,64.18
2022-12-22T11:07:17.181Z,48.38
2022-12-22T11:09:44.644Z,54.40
2022-12-22T11:12:50.502Z,39.22
2022-12-22T11:15:33.961Z,48.22
2022-12-22T11:18:32.152Z,25.10
2022-12-22T11:21:24.365Z,52.35
2022-12-22T11:24:08.003Z,27.52
2022-12-22T11:27:10.080Z,40.03
2022-12-22T11:29:58.944Z,58.17
2022-12-22T11:32:44.864Z,31.08
2022-12-22T11:35:26.833Z,40.05
2022-12-22T11:38:06.310Z,82.90
2022-12-22T11:40:41.629Z,65.00
2022-12-22T11:43:33.613Z,65.65
2022-12-22T11:46:38.663Z,66.90
2022-12-22T11:49:32.237Z,47.10
2022-12-22T11:52:10.531Z,29.77
2022-12-22T11:54:41.531Z,73.35
2022-12-22T11:57:55.775Z,21.38
2022-12-22T12:00:32.691Z,38.33
2022-12-22T12:03:40.448Z,28.63
2022-12-22T12:06:54.734Z,72.13
2022-12-22T12:09:44.661Z,27.05
2022-12-22T12:12:44.205Z,37.65
2022-12-22T12:15:14.685Z,66.22
2022-12-22T12:18:11.848Z,67.88
2022-12-22T12:20:46.791Z,58.30
2022-12-22T12:23:41.708Z,76.53
2022-12-22T12:26:26.157Z,62.75
2022-12-22T12:30:06.303Z,70.20
2022-12-22T12:32:41.984Z,63.83
2022-12-22T12:35:51.062Z,34.55
2022-12-22T12:38:56.712Z,25.33
2022-12-22T12:41:17.541Z,65.15
2022-12-22T12:43:46.157Z,42.75
2022-12-22T12:46:50.564Z,49.58
2022-12-22T12:49:38.711Z,57.78
2022-12-22T12:54:33.900Z,49.72
2022-12-22T12:59:43.002Z,27.73
2022-12-22T13:02:29.155Z,50.33
2022-12-22T13:05:04.174Z,42.72
2022-12-22T13:08:08.937Z,41.28
2022-12-22T13:10:37.883Z,50.58
2022-12-22T13:13:06.101Z,35.13
2022-12-22T13:15:42.585Z,48.25
2022-12-22T13:18:16.090Z,52.30
2022-12-22T13:20:45.176Z,56.17
2022-12-22T13:23:15.046Z,37.13
2022-12-22T13:25:56.146Z,50.67
2022-12-22T13:28:24.132Z,42.25
2022-12-22T13:30:59.664Z,34.85
2022-12-22T13:33:30.844Z,52.92
2022-12-22T13:35:59.600Z,27.98
2022-12-22T13:38:32.469Z,31.40
2022-12-22T13:41:03.111Z,49.60
2022-12-22T13:43:32.546Z,48.83
2022-12-22T13:46:03.043Z,48.78
2022-12-22T13:48:46.055Z,45.92
2022-12-22T13:51:38.010Z,44.15
2022-12-22T13:54:22.720Z,24.20
2022-12-22T13:56:57.103Z,40.42
2022-12-22T13:59:35.192Z,45.63
2022-12-22T14:02:08.199Z,39.47
2022-12-22T14:04:41.154Z,48.13
2022-12-22T14:07:20.012Z,22.08
2022-12-22T14:09:55.087Z,32.25
2022-12-22T14:12:36.387Z,38.53
2022-12-22T14:15:04.036Z,44.90
2022-12-22T14:17:33.708Z,45.58
2022-12-22T14:20:10.397Z,42.40
2022-12-22T14:22:42.961Z,38.10
2022-12-22T14:25:17.092Z,45.75
2022-12-22T14:27:53.624Z,39.88
2022-12-22T14:30:24.159Z,36.53
2022-12-22T14:32:56.039Z,28.92
2022-12-22T14:35:23.903Z,22.13
2022-12-22T14:38:07.231Z,34.47
2022-12-22T14:40:40.610Z,35.72
2022-12-22T14:43:20.780Z,39.55
2022-12-22T14:45:52.795Z,42.58
2022-12-22T14:48:31.223Z,41.13
2022-12-22T14:50:58.968Z,44.28
2022-12-22T14:53:32.824Z,40.60
2022-12-22T14:56:00.012Z,56.15
2022-12-22T14:58:38.869Z,35.15
2022-12-22T15:01:22.539Z,27.63
2022-12-22T15:04:20.323Z,50.90
2022-12-22T15:06:48.974Z,43.70
2022-12-22T15:09:16.770Z,44.15
2022-12-22T15:11:51.557Z,23.20
2022-12-22T15:14:26.746Z,38.00
2022-12-22T15:17:00.222Z,39.95
2022-12-22T15:19:31.953Z,34.05
2022-12-22T15:21:59.455Z,52.17
2022-12-22T15:24:27.373Z,32.08
2022-12-22T15:26:54.556Z,20.50
2022-12-22T15:29:21.712Z,34.47
2022-12-22T15:34:27.942Z,31.63
2022-12-22T15:36:55.232Z,27.25
2022-12-22T15:41:51.215Z,34.20
2022-12-22T15:44:18.585Z,20.08
2022-12-22T15:46:54.672Z,31.67
2022-12-22T15:49:25.735Z,26.20
2022-12-22T15:51:56.800Z,51.60
2022-12-22T15:54:26.914Z,39.67
2022-12-22T15:56:54.892Z,28.65
2022-12-22T15:59:28.069Z,49.05
2022-12-22T16:02:01.418Z,39.95
2022-12-22T16:04:29.715Z,25.70
2022-12-22T16:06:59.332Z,36.08
2022-12-22T16:09:38.211Z,56.95
2022-12-22T16:12:18.079Z,14.77
2022-12-22T16:14:52.060Z,33.05
2022-12-22T16:17:24.988Z,32.13
2022-12-22T16:19:52.117Z,30.70
2022-12-22T16:22:26.579Z,30.35
2022-12-22T16:24:53.895Z,29.48
2022-12-22T16:27:22.114Z,21.52
2022-12-22T16:29:53.771Z,29.80
2022-12-22T16:32:32.431Z,32.63
2022-12-22T16:35:11.783Z,26.85
2022-12-22T16:37:39.228Z,38.28
2022-12-22T16:40:08.303Z,37.88
2022-12-22T16:45:28.855Z,27.02
2022-12-22T16:47:59.857Z,36.33
2022-12-22T16:50:33.134Z,32.17
2022-12-22T16:53:02.082Z,39.55
2022-12-22T16:55:33.796Z,40.95
2022-12-22T16:58:01.018Z,25.80
2022-12-22T17:03:21.919Z,40.42
2022-12-22T17:05:52.437Z,38.85
2022-12-22T17:08:29.389Z,39.53
2022-12-22T17:11:04.811Z,42.00
2022-12-22T17:13:37.901Z,36.92
2022-12-22T17:16:05.837Z,39.92
2022-12-22T17:18:33.518Z,43.65
2022-12-22T17:21:00.926Z,42.78
2022-12-22T17:23:39.775Z,39.25
2022-12-22T17:26:10.729Z,33.47
2022-12-22T17:28:38.863Z,41.65
2022-12-22T17:31:06.430Z,24.95
2022-12-22T17:33:33.775Z,37.70
2022-12-22T17:36:01.994Z,36.33
2022-12-22T17:38:30.146Z,42.42
2022-12-22T17:40:57.786Z,41.40
2022-12-22T17:43:24.973Z,45.80
2022-12-22T17:45:53.665Z,44.08
2022-12-22T17:48:20.824Z,39.33
2022-12-22T17:50:50.026Z,38.58
2022-12-22T17:53:21.444Z,37.03
2022-12-22T17:56:09.052Z,51.33
2022-12-22T17:58:36.679Z,35.45
2022-12-22T18:01:04.278Z,41.08
2022-12-22T18:03:31.498Z,39.70
2022-12-22T18:06:00.356Z,39.20
2022-12-22T18:08:27.682Z,41.53
2022-12-22T18:10:55.179Z,35.05
2022-12-22T18:13:25.938Z,40.33
2022-12-22T18:15:58.106Z,44.20
2022-12-22T18:18:26.947Z,38.63
2022-12-22T18:21:07.233Z,44.30
2022-12-22T18:23:37.401Z,35.33
2022-12-22T18:26:06.380Z,46.80
2022-12-22T18:28:33.566Z,52.13
2022-12-22T18:33:28.147Z,43.30
2022-12-22T18:38:30.708Z,38.80
2022-12-22T18:40:58.503Z,48.88
2022-12-22T18:43:26.297Z,39.05
2022-12-22T18:45:53.617Z,53.55
2022-12-22T18:48:20.692Z,40.70
2022-12-22T18:50:48.779Z,40.22
2022-12-22T18:53:29.605Z,32.75
2022-12-22T18:55:57.489Z,42.55
2022-12-22T18:58:25.903Z,42.30
2022-12-22T19:00:55.311Z,42.15
2022-12-22T19:03:25.839Z,36.90
2022-12-22T19:05:53.103Z,33.80
2022-12-22T19:08:23.154Z,28.77
2022-12-22T19:10:53.487Z,29.85
2022-12-22T19:13:33.838Z,36.00
2022-12-22T19:16:01.791Z,36.05
2022-12-22T19:18:29.187Z,34.25
2022-12-22T19:20:56.955Z,30.88
2022-12-22T19:23:26.358Z,26.83
2022-12-22T19:26:09.267Z,26.95
2022-12-22T19:28:40.396Z,33.25
2022-12-22T19:31:10.349Z,38.63
2022-12-22T19:33:41.725Z,37.13
2022-12-22T19:36:25.833Z,28.73
2022-12-22T19:39:03.345Z,40.40
2022-12-22T19:41:55.620Z,41.63
2022-12-22T19:44:26.787Z,38.42
2022-12-22T19:46:55.459Z,30.80
2022-12-22T19:49:27.604Z,30.95
2022-12-22T19:51:58.300Z,41.13
2022-12-22T19:54:25.518Z,26.20
2022-12-22T19:56:55.203Z,41.00
2022-12-22T19:59:38.549Z,40.42
2022-12-22T20:02:22.672Z,39.72
2022-12-22T20:04:50.647Z,34.88
2022-12-22T20:07:20.767Z,40.13
2022-12-22T20:09:48.400Z,27.70
2022-12-22T20:12:24.746Z,32.35
2022-12-22T20:14:53.201Z,35.00
2022-12-22T20:17:20.814Z,39.28
2022-12-22T20:19:48.515Z,30.92
2022-12-22T20:22:21.415Z,44.63
2022-12-22T20:24:50.122Z,39.45
2022-12-22T20:27:19.811Z,32.58
2022-12-22T20:29:46.955Z,37.60
2022-12-22T20:34:46.744Z,37.47
2022-12-22T20:39:44.677Z,30.50
2022-12-22T20:42:20.286Z,31.35
2022-12-22T20:45:02.642Z,28.70
2022-12-22T20:47:33.975Z,21.30
2022-12-22T20:50:01.222Z,33.00
2022-12-22T20:52:28.773Z,35.50
2022-12-22T20:54:55.887Z,40.35
2022-12-22T20:59:56.152Z,16.73
2022-12-22T21:02:28.453Z,39.10
2022-12-22T21:04:56.408Z,31.25
2022-12-22T21:07:23.601Z,31.92
2022-12-22T21:09:50.750Z,37.85
2022-12-22T21:14:44.971Z,27.92
2022-12-22T21:17:19.352Z,31.83
2022-12-22T21:19:47.063Z,24.88
2022-12-22T21:22:14.307Z,32.20
2022-12-22T21:24:41.899Z,25.33
2022-12-22T21:27:17.199Z,23.73
2022-12-22T21:29:44.709Z,35.75
2022-12-22T21:32:15.962Z,27.50
2022-12-22T21:34:43.068Z,36.13
2022-12-22T21:39:45.009Z,35.70
2022-12-22T21:42:16.792Z,39.33
2022-12-22T21:44:47.252Z,40.35
2022-12-22T21:47:17.368Z,33.00
2022-12-22T21:49:44.386Z,27.15
2022-12-22T21:54:38.422Z,26.23
2022-12-22T21:57:06.154Z,42.38
2022-12-22T21:59:52.027Z,37.78
2022-12-22T22:04:52.051Z,33.57
2022-12-22T22:07:21.404Z,16.98
2022-12-22T22:09:48.409Z,29.98
2022-12-22T22:15:02.107Z,32.10
2022-12-22T22:17:31.094Z,25.92
2022-12-22T22:22:24.939Z,39.42
2022-12-22T22:24:52.212Z,37.83
2022-12-22T22:27:19.353Z,30.20
2022-12-22T22:32:13.314Z,28.33
2022-12-22T22:37:07.401Z,26.20
2022-12-22T22:39:34.649Z,15.98
2022-12-22T22:44:28.690Z,18.15
2022-12-22T22:49:28.383Z,31.13
2022-12-22T22:51:56.348Z,32.38
2022-12-22T22:54:23.453Z,26.58
2022-12-22T22:56:50.594Z,28.98
2022-12-22T22:59:18.692Z,35.38
2022-12-22T23:04:13.087Z,30.67
2022-12-22T23:06:41.873Z,38.17
2022-12-22T23:09:09.677Z,30.40
2022-12-22T23:11:36.725Z,27.13
2022-12-22T23:14:03.925Z,23.50
2022-12-22T23:16:37.744Z,33.75
2022-12-22T23:19:05.774Z,37.85
2022-12-22T23:21:32.885Z,33.47
2022-12-22T23:26:26.899Z,33.55
2022-12-22T23:31:30.523Z,34.15
2022-12-22T23:33:57.630Z,29.50
2022-12-22T23:38:52.210Z,23.77
2022-12-22T23:41:19.707Z,27.00
2022-12-22T23:43:46.954Z,24.83
2022-12-22T23:46:16.986Z,34.15
2022-12-22T23:48:44.629Z,32.38
2022-12-22T23:51:12.152Z,35.70
2022-12-22T23:53:39.321Z,31.23
2022-12-22T23:56:06.667Z,35.72
2022-12-22T23:58:33.665Z,36.42
